createdAt,value
2023-05-19T02:27:00.565Z,98078.91
2023-05-19T02:29:28.041Z,98084.88
2023-05-19T02:31:55.850Z,98069.88
2023-05-19T02:34:23.257Z,98075.06
2023-05-19T02:36:50.727Z,98084.25
2023-05-19T02:39:18.093Z,98075.75
2023-05-19T02:41:45.587Z,98076.47
2023-05-19T02:44:12.872Z,98067.00
2023-05-19T02:46:40.356Z,98070.06
2023-05-19T02:49:07.856Z,98061.00
2023-05-19T02:51:35.389Z,98076.41
2023-05-19T02:54:02.653Z,98079.94
2023-05-19T02:56:30.026Z,98088.81
2023-05-19T02:58:58.495Z,98077.69
2023-05-19T03:01:26.538Z,98081.81
2023-05-19T03:03:54.087Z,98085.06
2023-05-19T03:06:23.723Z,98079.09
2023-05-19T03:08:51.553Z,98079.56
2023-05-19T03:11:19.084Z,98078.75
2023-05-19T03:13:46.529Z,98078.97
2023-05-19T03:16:14.149Z,98075.75
2023-05-19T03:18:42.238Z,98074.38
2023-05-19T03:21:09.471Z,98084.13
2023-05-19T03:23:36.797Z,98073.47
2023-05-19T03:26:04.554Z,98072.53
2023-05-19T03:28:31.963Z,98075.56
2023-05-19T03:30:59.235Z,98078.91
2023-05-19T03:33:30.565Z,98077.38
2023-05-19T07:31:58.474Z,98167.50
2023-05-19T07:34:26.019Z,98175.31
2023-05-19T07:36:53.304Z,98170.03
2023-05-19T07:39:21.081Z,98169.38
2023-05-19T07:41:52.841Z,98172.06
2023-05-19T07:44:20.154Z,98174.19
2023-05-19T07:46:47.739Z,98176.69
2023-05-19T07:49:15.112Z,98180.78
2023-05-19T07:51:42.479Z,98175.97
2023-05-19T07:54:10.113Z,98177.88
2023-05-19T07:56:37.484Z,98178.97
2023-05-19T07:59:05.098Z,98182.50
2023-05-19T08:01:32.557Z,98185.75
2023-05-19T08:04:00.344Z,98188.38
2023-05-19T08:06:28.495Z,98187.59
2023-05-19T08:08:56.055Z,98188.41
2023-05-19T08:11:23.329Z,98190.50
2023-05-19T08:13:51.022Z,98190.81
2023-05-19T08:16:18.653Z,98191.84
2023-05-19T08:18:46.211Z,98190.78
2023-05-19T08:21:13.712Z,98181.91
2023-05-19T08:23:41.034Z,98183.84
2023-05-19T08:26:08.297Z,98187.09
2023-05-19T08:28:35.826Z,98190.53
2023-05-19T08:31:03.428Z,98182.59
2023-05-19T08:33:30.694Z,98184.72
2023-05-19T08:35:58.225Z,98186.56
2023-05-19T08:38:26.706Z,98183.38
2023-05-19T08:40:55.042Z,98186.03
2023-05-19T17:04:35.878Z,98157.97
2023-05-19T17:07:03.436Z,98157.34
2023-05-19T17:09:31.412Z,98154.50
2023-05-19T17:11:58.977Z,98161.25
2023-05-19T17:14:26.256Z,98162.25
2023-05-19T17:16:53.591Z,98161.69
2023-05-19T17:19:20.925Z,98167.53
2023-05-19T17:21:48.612Z,98173.38
2023-05-19T17:24:16.411Z,98164.38
2023-05-19T17:26:44.378Z,98172.91
2023-05-19T17:29:12.211Z,98173.44
2023-05-19T17:31:39.492Z,98168.50
2023-05-19T17:34:07.123Z,98171.50
2023-05-19T17:36:34.525Z,98167.00
2023-05-19T17:39:02.093Z,98163.13
2023-05-19T17:41:29.511Z,98168.19
2023-05-19T17:43:56.991Z,98167.66
2023-05-19T17:46:24.315Z,98169.81
2023-05-19T17:48:51.669Z,98173.53
2023-05-19T17:51:19.297Z,98170.88
2023-05-19T17:53:47.207Z,98173.28
2023-05-19T17:56:15.023Z,98173.28
2023-05-19T17:58:44.233Z,98170.09
2023-05-19T18:01:11.775Z,98170.09
2023-05-19T18:03:39.625Z,98173.81
2023-05-19T18:06:07.767Z,98172.25
2023-05-19T18:08:37.038Z,98180.19
2023-05-19T18:11:05.931Z,98173.03
2023-05-19T18:13:33.829Z,98172.72
2023-05-19T18:16:01.861Z,98171.16
2023-05-19T18:23:00.268Z,98156.06
2023-05-19T18:25:27.725Z,98156.84
2023-05-19T18:27:56.067Z,98166.38
